createdAt,value
2023-04-25T00:00:59.457Z,5.27
2023-04-25T00:03:30.904Z,2.80
2023-04-25T00:06:03.144Z,3.20
2023-04-25T00:08:33.631Z,3.40
2023-04-25T00:11:06.252Z,3.00
2023-04-25T00:13:36.242Z,2.70
2023-04-25T00:16:06.265Z,3.07
2023-04-25T00:18:36.128Z,3.10
2023-04-25T00:21:07.450Z,3.03
2023-04-25T00:23:37.674Z,2.87
2023-04-25T00:26:10.867Z,2.53
2023-04-25T00:28:40.704Z,2.53
2023-04-25T00:31:11.027Z,2.87
2023-04-25T00:33:40.868Z,3.03
2023-04-25T00:36:12.561Z,2.73
2023-04-25T00:38:42.367Z,2.67
2023-04-25T00:41:15.929Z,2.40
2023-04-25T00:43:46.493Z,2.40
2023-04-25T00:46:16.333Z,2.70
2023-04-25T00:48:46.752Z,2.40
2023-04-25T00:51:20.211Z,2.97
2023-04-25T00:53:51.812Z,2.53
2023-04-25T00:56:25.162Z,2.60
2023-04-25T00:59:01.132Z,2.83
2023-04-25T01:01:31.076Z,2.57
2023-04-25T01:04:02.779Z,2.27
2023-04-25T01:06:36.477Z,2.00
2023-04-25T01:09:07.818Z,2.57
2023-04-25T01:11:41.333Z,2.90
2023-04-25T01:14:11.360Z,2.67
2023-04-25T01:16:41.307Z,2.97
2023-04-25T01:19:14.046Z,3.30
2023-04-25T01:21:46.662Z,3.43
2023-04-25T01:24:16.730Z,2.90
2023-04-25T01:26:51.005Z,3.57
2023-04-25T01:29:21.678Z,2.90
2023-04-25T01:31:51.787Z,3.23
2023-04-25T01:34:21.643Z,3.50
2023-04-25T01:36:54.933Z,2.60
2023-04-25T01:39:25.005Z,3.27
2023-04-25T01:41:56.081Z,3.57
2023-04-25T01:44:27.155Z,2.90
2023-04-25T01:46:57.037Z,3.27
2023-04-25T01:49:26.930Z,2.70
2023-04-25T01:51:59.561Z,2.80
2023-04-25T01:54:29.422Z,3.00
2023-04-25T01:57:02.960Z,3.13
2023-04-25T01:59:33.000Z,2.63
2023-04-25T02:02:07.774Z,2.90
2023-04-25T02:04:38.576Z,2.67
2023-04-25T02:07:11.193Z,2.40
2023-04-25T02:09:41.026Z,2.77
2023-04-25T02:12:12.077Z,2.70
2023-04-25T02:14:42.078Z,2.60
2023-04-25T02:17:13.816Z,2.40
2023-04-25T02:19:43.899Z,2.07
2023-04-25T02:22:16.361Z,2.33
2023-04-25T02:24:46.273Z,2.40
2023-04-25T02:27:16.449Z,2.40
2023-04-25T02:29:46.268Z,2.33
2023-04-25T02:32:16.148Z,2.63
2023-04-25T02:34:45.976Z,2.53
2023-04-25T02:37:18.447Z,2.10
2023-04-25T02:39:48.245Z,2.40
2023-04-25T02:42:18.014Z,2.70
2023-04-25T02:44:47.809Z,2.60
2023-04-25T02:47:17.688Z,2.50
2023-04-25T02:49:47.475Z,2.40
2023-04-25T02:52:19.892Z,2.27
2023-04-25T02:54:49.712Z,2.50
2023-04-25T02:57:19.581Z,2.77
2023-04-25T02:59:49.370Z,2.33
2023-04-25T03:02:19.200Z,2.07
2023-04-25T03:04:51.454Z,2.50
2023-04-25T03:07:23.914Z,1.97
2023-04-25T03:09:53.744Z,2.70
2023-04-25T03:12:23.759Z,2.50
2023-04-25T03:14:54.298Z,2.00
2023-04-25T03:17:24.145Z,2.30
2023-04-25T03:19:53.993Z,2.10
2023-04-25T03:22:26.506Z,2.07
2023-04-25T03:24:56.443Z,1.90
2023-04-25T03:27:26.410Z,2.17
2023-04-25T03:29:56.245Z,2.10
2023-04-25T03:32:26.212Z,2.20
2023-04-25T03:34:56.344Z,2.83
2023-04-25T03:37:28.864Z,2.80
2023-04-25T03:39:58.689Z,2.73
2023-04-25T03:42:29.287Z,2.70
2023-04-25T03:44:59.179Z,2.23
2023-04-25T03:47:28.967Z,2.67
2023-04-25T03:49:58.867Z,2.63
2023-04-25T03:52:31.309Z,2.43
2023-04-25T03:55:01.156Z,2.60
2023-04-25T03:57:30.963Z,2.10
2023-04-25T04:00:00.793Z,2.83
2023-04-25T04:02:31.608Z,2.57
2023-04-25T04:05:01.959Z,2.10
2023-04-25T04:07:38.543Z,2.10
2023-04-25T04:10:09.137Z,2.03
2023-04-25T04:12:39.093Z,2.30
2023-04-25T04:15:10.162Z,2.57
2023-04-25T04:17:40.083Z,2.50
2023-04-25T04:20:12.326Z,2.20
2023-04-25T04:22:44.714Z,2.00
2023-04-25T04:25:14.910Z,2.23
2023-04-25T04:27:45.989Z,2.07
2023-04-25T04:30:17.004Z,2.67
2023-04-25T04:32:47.893Z,1.93
2023-04-25T04:35:19.533Z,2.50
2023-04-25T04:37:51.975Z,2.10
2023-04-25T04:40:21.927Z,2.00
2023-04-25T04:42:52.002Z,1.70
2023-04-25T04:45:22.006Z,1.40
2023-04-25T04:47:52.310Z,1.47
2023-04-25T04:50:22.143Z,1.23
2023-04-25T04:52:55.710Z,2.10
2023-04-25T04:55:25.512Z,1.20
2023-04-25T04:57:55.361Z,1.27
2023-04-25T05:00:26.210Z,1.40
2023-04-25T05:02:57.955Z,1.67
2023-04-25T05:05:27.955Z,2.33
2023-04-25T05:08:00.382Z,1.90
2023-04-25T05:10:30.298Z,2.50
2023-04-25T05:13:00.108Z,2.03
2023-04-25T05:15:32.236Z,2.20
2023-04-25T05:18:02.755Z,2.83
2023-04-25T05:20:32.704Z,2.47
2023-04-25T05:23:05.359Z,2.73
2023-04-25T05:25:35.248Z,2.77
2023-04-25T05:28:06.215Z,2.30
2023-04-25T05:30:36.044Z,2.77
2023-04-25T05:33:05.946Z,2.00
2023-04-25T05:35:35.932Z,2.27
2023-04-25T05:38:09.889Z,2.00
2023-04-25T05:40:39.746Z,1.97
2023-04-25T05:43:09.560Z,1.10
2023-04-25T05:45:39.552Z,1.63
2023-04-25T05:48:09.388Z,1.20
2023-04-25T05:50:42.356Z,1.13
2023-04-25T05:53:14.759Z,1.20
2023-04-25T05:55:44.535Z,1.33
2023-04-25T05:58:14.348Z,1.60
2023-04-25T06:00:46.173Z,1.33
2023-04-25T06:03:22.475Z,1.43
2023-04-25T06:05:52.512Z,1.53
2023-04-25T06:08:24.978Z,2.00
2023-04-25T06:10:56.625Z,1.40
2023-04-25T06:13:26.463Z,1.60
2023-04-25T06:15:56.400Z,1.80
2023-04-25T06:18:26.349Z,2.10
2023-04-25T06:20:56.191Z,2.47
2023-04-25T06:23:28.899Z,1.90
2023-04-25T06:25:58.794Z,2.03
2023-04-25T06:28:28.640Z,1.70
2023-04-25T06:30:58.515Z,2.00
2023-04-25T06:33:28.426Z,1.93
2023-04-25T06:35:58.282Z,2.00
2023-04-25T06:38:30.809Z,1.90
2023-04-25T06:41:00.630Z,1.47
2023-04-25T06:43:34.206Z,1.17
2023-04-25T06:46:04.203Z,1.40
2023-04-25T06:48:34.109Z,1.10
2023-04-25T06:51:04.009Z,1.23
2023-04-25T06:53:36.457Z,1.50
2023-04-25T06:56:07.164Z,1.30
2023-04-25T06:58:37.021Z,1.63
2023-04-25T07:01:07.082Z,1.20
2023-04-25T07:03:40.896Z,1.53
2023-04-25T07:06:11.226Z,1.87
2023-04-25T07:08:43.624Z,1.90
2023-04-25T07:11:13.452Z,1.70
2023-04-25T07:13:43.270Z,1.90
2023-04-25T07:16:13.139Z,1.63
2023-04-25T07:18:42.965Z,1.53
2023-04-25T07:21:12.825Z,1.50
2023-04-25T07:23:45.579Z,1.40
2023-04-25T07:26:15.450Z,1.83
2023-04-25T07:28:45.269Z,1.40
2023-04-25T07:31:17.806Z,1.50
2023-04-25T07:33:47.777Z,1.20
2023-04-25T07:36:17.664Z,1.20
2023-04-25T07:38:50.296Z,1.10
2023-04-25T07:41:20.345Z,1.07
2023-04-25T07:43:55.437Z,1.20
2023-04-25T07:46:25.282Z,1.63
2023-04-25T07:48:55.131Z,1.57
2023-04-25T07:51:25.074Z,1.50
2023-04-25T07:53:57.519Z,1.40
2023-04-25T07:56:27.331Z,1.67
2023-04-25T07:58:57.175Z,1.20
2023-04-25T08:01:28.427Z,1.43
2023-04-25T08:04:01.874Z,1.23
2023-04-25T08:06:32.825Z,0.90
2023-04-25T08:09:05.756Z,1.10
2023-04-25T08:11:35.848Z,1.03
2023-04-25T08:14:06.044Z,1.10
2023-04-25T08:16:39.272Z,1.00
2023-04-25T08:19:09.160Z,1.30
2023-04-25T08:21:39.031Z,1.53
2023-04-25T08:24:11.722Z,1.20
2023-04-25T08:26:43.224Z,1.20
2023-04-25T08:29:13.088Z,1.27
2023-04-25T08:31:43.025Z,1.27
2023-04-25T08:34:13.131Z,1.70
2023-04-25T08:36:43.203Z,1.70
2023-04-25T08:39:15.756Z,1.73
2023-04-25T08:41:45.810Z,1.70
2023-04-25T08:44:15.725Z,1.60
2023-04-25T08:46:45.717Z,1.50
2023-04-25T08:49:20.187Z,1.90
2023-04-25T08:51:52.344Z,1.60
2023-04-25T08:57:01.495Z,1.73
2023-04-25T08:59:36.124Z,1.80
2023-04-25T09:02:07.492Z,1.70
2023-04-25T09:04:38.175Z,1.97
2023-04-25T09:07:08.027Z,1.90
2023-04-25T09:09:40.633Z,2.30
2023-04-25T09:12:10.607Z,1.53
2023-04-25T09:14:40.455Z,1.80
2023-04-25T09:17:11.020Z,1.57
2023-04-25T09:19:42.260Z,1.70
2023-04-25T09:22:12.971Z,1.93
2023-04-25T09:24:48.281Z,1.80
2023-04-25T09:27:28.243Z,1.80
2023-04-25T09:30:02.257Z,1.73
2023-04-25T09:32:32.600Z,1.80
2023-04-25T09:35:02.551Z,2.00
2023-04-25T09:37:33.913Z,2.00
2023-04-25T09:40:11.540Z,2.47
2023-04-25T09:42:45.722Z,1.93
2023-04-25T09:45:17.301Z,1.90
2023-04-25T09:47:47.622Z,1.90
2023-04-25T09:50:21.273Z,2.40
2023-04-25T09:53:06.805Z,2.20
2023-04-25T09:55:40.012Z,1.80
2023-04-25T09:58:10.469Z,1.70
2023-04-25T10:00:41.773Z,1.70
2023-04-25T10:03:12.156Z,1.60
2023-04-25T10:05:42.712Z,1.60
2023-04-25T10:08:12.931Z,2.47
2023-04-25T10:10:45.610Z,2.20
2023-04-25T10:13:15.950Z,2.10
2023-04-25T10:15:46.133Z,1.80
2023-04-25T10:18:16.887Z,1.70
2023-04-25T10:20:49.554Z,1.27
2023-04-25T10:23:20.817Z,1.80
2023-04-25T10:25:54.140Z,2.13
2023-04-25T10:28:24.425Z,1.70
2023-04-25T10:31:04.387Z,1.87
2023-04-25T10:33:37.756Z,1.43
2023-04-25T10:36:16.151Z,1.67
2023-04-25T10:38:47.226Z,1.50
2023-04-25T10:41:22.654Z,1.40
2023-04-25T10:43:53.803Z,1.57
2023-04-25T10:46:27.836Z,1.70
2023-04-25T10:48:59.767Z,1.70
2023-04-25T10:51:39.902Z,1.70
2023-04-25T10:54:13.816Z,1.83
2023-04-25T10:56:47.481Z,1.53
2023-04-25T10:59:19.884Z,1.67
2023-04-25T11:01:51.250Z,2.03
2023-04-25T11:04:25.793Z,2.40
2023-04-25T11:07:07.782Z,1.53
2023-04-25T11:09:39.215Z,1.87
2023-04-25T11:12:14.458Z,1.93
2023-04-25T11:14:44.751Z,1.77
2023-04-25T11:17:14.702Z,1.80
2023-04-25T11:19:44.905Z,1.90
2023-04-25T11:22:14.813Z,1.73
2023-04-25T11:24:44.867Z,1.57
2023-04-25T11:27:17.479Z,2.07
2023-04-25T11:29:49.164Z,1.80
2023-04-25T11:32:21.324Z,1.80
2023-04-25T11:34:51.656Z,2.03
2023-04-25T11:37:22.452Z,1.83
2023-04-25T11:39:52.419Z,1.47
2023-04-25T11:42:24.853Z,1.60
2023-04-25T11:44:57.197Z,1.60
2023-04-25T11:47:33.809Z,1.60
2023-04-25T11:50:04.228Z,1.63
2023-04-25T11:52:41.794Z,1.90
2023-04-25T11:55:14.030Z,1.43
2023-04-25T11:57:48.070Z,1.70
2023-04-25T12:00:21.354Z,1.60
2023-04-25T12:02:58.124Z,1.33
2023-04-25T12:05:33.502Z,1.23
2023-04-25T12:08:15.964Z,1.57
2023-04-25T12:10:47.638Z,1.50
2023-04-25T12:13:29.351Z,1.73
2023-04-25T12:15:59.574Z,1.70
2023-04-25T12:18:29.860Z,2.77
2023-04-25T12:20:59.695Z,1.70
2023-04-25T12:23:34.511Z,1.60
2023-04-25T12:26:05.309Z,1.77
2023-04-25T12:28:37.726Z,1.43
2023-04-25T12:31:08.713Z,1.90
2023-04-25T12:33:40.689Z,1.60
2023-04-25T12:36:12.357Z,1.60
2023-04-25T12:38:44.453Z,1.50
2023-04-25T12:41:14.283Z,1.67
2023-04-25T12:43:46.786Z,1.27
2023-04-25T12:46:16.636Z,1.07
2023-04-25T12:48:48.057Z,1.10
2023-04-25T12:51:17.920Z,1.20
2023-04-25T12:53:47.767Z,1.60
2023-04-25T12:56:17.609Z,1.60
2023-04-25T12:58:56.231Z,1.47
2023-04-25T13:01:26.556Z,1.60
2023-04-25T13:03:57.175Z,1.80
2023-04-25T13:06:27.540Z,2.20
2023-04-25T13:08:57.407Z,1.30
2023-04-25T13:11:27.287Z,1.37
2023-04-25T13:13:59.807Z,1.80
2023-04-25T13:16:29.817Z,1.60
2023-04-25T13:19:00.352Z,1.67
2023-04-25T13:21:30.252Z,1.67
2023-04-25T13:24:00.126Z,1.03
2023-04-25T13:26:30.130Z,1.50
2023-04-25T13:29:04.879Z,1.40
2023-04-25T13:31:38.146Z,2.10
2023-04-25T13:34:08.007Z,1.67
2023-04-25T13:36:38.151Z,1.80
2023-04-25T13:39:08.432Z,1.73
2023-04-25T13:41:38.443Z,1.60
2023-04-25T13:44:11.653Z,1.80
2023-04-25T13:46:46.999Z,2.40
2023-04-25T13:49:17.667Z,1.80
2023-04-25T13:51:47.516Z,1.60
2023-04-25T13:54:17.336Z,1.43
2023-04-25T13:56:47.169Z,1.30
2023-04-25T13:59:19.595Z,1.77
2023-04-25T14:01:49.453Z,1.83
2023-04-25T14:04:23.156Z,1.67
2023-04-25T14:06:54.757Z,1.47
2023-04-25T14:09:26.866Z,1.63
2023-04-25T14:11:56.812Z,1.63
2023-04-25T14:14:29.269Z,1.60
2023-04-25T14:16:59.835Z,1.70
2023-04-25T14:19:29.989Z,1.77
2023-04-25T14:21:59.910Z,1.80
2023-04-25T14:24:29.817Z,1.53
2023-04-25T14:27:00.059Z,1.50
2023-04-25T14:29:32.548Z,1.30
2023-04-25T14:32:03.211Z,1.70
2023-04-25T14:34:33.042Z,1.50
2023-04-25T14:37:03.047Z,1.70
2023-04-25T14:39:32.845Z,2.03
2023-04-25T14:42:02.671Z,1.73
2023-04-25T14:44:35.063Z,1.80
2023-04-25T14:47:04.962Z,1.80
2023-04-25T14:49:37.976Z,1.57
2023-04-25T14:52:08.042Z,1.73
2023-04-25T14:54:37.844Z,1.53
2023-04-25T14:57:07.656Z,1.40
2023-04-25T14:59:42.360Z,1.70
2023-04-25T15:02:12.601Z,1.57
2023-04-25T15:04:44.981Z,1.33
2023-04-25T15:07:16.423Z,1.43
2023-04-25T15:09:50.399Z,1.40
2023-04-25T15:12:20.381Z,1.37
2023-04-25T15:14:52.808Z,1.43
2023-04-25T15:17:25.449Z,1.50
2023-04-25T15:19:55.846Z,1.40
2023-04-25T15:22:25.669Z,1.50
2023-04-25T15:24:55.846Z,1.50
2023-04-25T15:27:25.684Z,2.10
2023-04-25T15:29:58.139Z,2.00
2023-04-25T15:32:28.064Z,1.80
2023-04-25T15:35:03.693Z,1.90
2023-04-25T15:37:33.508Z,1.20
2023-04-25T15:40:09.989Z,1.73
2023-04-25T15:42:40.028Z,1.60
2023-04-25T15:45:16.410Z,1.40
2023-04-25T15:47:47.172Z,1.60
2023-04-25T15:50:18.180Z,1.60
2023-04-25T15:52:48.115Z,1.23
2023-04-25T15:55:18.129Z,1.40
2023-04-25T15:57:48.109Z,1.53
2023-04-25T16:00:22.707Z,1.50
2023-04-25T16:02:56.440Z,1.30
2023-04-25T16:05:26.354Z,1.37
2023-04-25T16:07:56.641Z,1.73
2023-04-25T16:10:31.317Z,1.47
2023-04-25T16:13:01.114Z,1.50
2023-04-25T16:15:35.499Z,1.43
2023-04-25T16:18:05.758Z,1.53
2023-04-25T16:20:35.914Z,1.40
2023-04-25T16:23:05.736Z,1.60
2023-04-25T16:25:35.677Z,1.67
2023-04-25T16:28:05.723Z,1.67
2023-04-25T16:30:38.324Z,1.93
2023-04-25T16:33:08.257Z,1.67
2023-04-25T16:35:38.072Z,1.67
2023-04-25T16:38:07.905Z,1.60
2023-04-25T16:40:38.710Z,1.87
2023-04-25T16:43:08.579Z,2.10
2023-04-25T16:45:40.998Z,1.90
2023-04-25T16:48:10.938Z,1.80
2023-04-25T16:50:41.048Z,1.63
2023-04-25T16:53:10.834Z,2.00
2023-04-25T16:55:40.717Z,1.30
2023-04-25T16:58:12.153Z,1.27
2023-04-25T17:00:44.707Z,1.67
2023-04-25T17:03:19.449Z,1.57
2023-04-25T17:05:49.612Z,1.53
2023-04-25T17:08:19.754Z,1.47
2023-04-25T17:10:49.558Z,1.33
2023-04-25T17:13:19.418Z,1.60
2023-04-25T17:15:54.839Z,1.43
2023-04-25T17:18:25.785Z,1.50
2023-04-25T17:20:55.768Z,1.57
2023-04-25T17:23:26.051Z,1.70
2023-04-25T17:25:56.208Z,1.90
2023-04-25T17:28:26.043Z,2.30
2023-04-25T17:30:59.515Z,2.73
2023-04-25T17:33:29.564Z,2.10
2023-04-25T17:35:59.362Z,1.97
2023-04-25T17:38:29.157Z,2.53
2023-04-25T17:40:58.995Z,2.20
2023-04-25T17:43:29.098Z,2.10
2023-04-25T17:46:01.774Z,1.87
2023-04-25T17:48:32.022Z,1.80
2023-04-25T17:51:01.925Z,2.17
2023-04-25T17:53:31.876Z,3.00
2023-04-25T17:56:06.914Z,2.33
2023-04-25T17:58:42.832Z,3.13
2023-04-25T18:01:15.249Z,2.70
2023-04-25T18:03:50.358Z,2.20
2023-04-25T18:06:20.950Z,1.97
2023-04-25T18:08:50.982Z,1.80
2023-04-25T18:11:21.279Z,2.37
2023-04-25T18:13:51.130Z,2.03
2023-04-25T18:16:23.634Z,2.07
2023-04-25T18:18:55.984Z,2.00
2023-04-25T18:21:26.376Z,2.00
2023-04-25T18:23:56.158Z,2.00
2023-04-25T18:26:25.972Z,1.97
2023-04-25T18:28:58.318Z,3.00
2023-04-25T18:31:32.342Z,2.50
2023-04-25T18:34:02.180Z,2.10
2023-04-25T18:36:33.047Z,2.30
2023-04-25T18:41:53.645Z,2.20
2023-04-25T18:44:26.312Z,2.70
2023-04-25T18:46:58.684Z,2.50
2023-04-25T18:49:28.549Z,2.17
2023-04-25T18:51:58.658Z,2.30
2023-04-25T18:54:28.519Z,2.30
2023-04-25T18:56:58.522Z,2.83
2023-04-25T18:59:28.319Z,2.60
2023-04-25T19:02:01.960Z,2.67
2023-04-25T19:04:34.143Z,2.97
2023-04-25T19:07:04.461Z,3.80
2023-04-25T19:09:34.525Z,2.60
2023-04-25T19:12:04.353Z,3.10
2023-04-25T19:14:34.739Z,2.40
2023-04-25T19:17:07.291Z,2.23
2023-04-25T19:19:37.192Z,2.37
2023-04-25T19:22:07.722Z,3.10
2023-04-25T19:24:37.552Z,2.57
2023-04-25T19:27:09.020Z,2.30
2023-04-25T19:29:44.462Z,2.13
2023-04-25T19:32:17.211Z,2.40
2023-04-25T19:34:47.194Z,2.30
2023-04-25T19:37:17.256Z,2.47
2023-04-25T19:39:54.234Z,2.00
2023-04-25T19:42:24.012Z,2.60
2023-04-25T19:44:54.514Z,2.27
2023-04-25T19:47:27.906Z,2.57
2023-04-25T19:49:59.415Z,2.30
2023-04-25T19:52:29.232Z,2.30
2023-04-25T19:55:02.587Z,2.37
2023-04-25T19:57:33.304Z,2.20
2023-04-25T20:00:04.422Z,2.70
2023-04-25T20:02:41.761Z,2.20
2023-04-25T20:05:12.496Z,2.33
2023-04-25T20:07:42.618Z,2.43
2023-04-25T20:10:15.906Z,2.30
2023-04-25T20:12:47.430Z,2.70
2023-04-25T20:15:17.224Z,2.40
2023-04-25T20:17:49.728Z,2.10
2023-04-25T20:20:20.355Z,2.60
2023-04-25T20:22:51.232Z,2.43
2023-04-25T20:25:22.138Z,2.30
2023-04-25T20:27:52.241Z,2.27
2023-04-25T20:30:22.028Z,2.50
2023-04-25T20:32:54.517Z,2.63
2023-04-25T20:35:25.414Z,3.27
2023-04-25T20:37:55.229Z,2.27
2023-04-25T20:40:25.061Z,2.53
2023-04-25T20:42:56.507Z,2.47
2023-04-25T20:45:31.649Z,2.70
2023-04-25T20:48:07.341Z,2.53
2023-04-25T20:50:37.208Z,2.20
2023-04-25T20:53:07.048Z,2.53
2023-04-25T20:55:36.853Z,2.70
2023-04-25T20:58:07.348Z,2.57
2023-04-25T21:00:39.177Z,3.13
2023-04-25T21:03:16.378Z,2.60
2023-04-25T21:05:47.571Z,2.87
2023-04-25T21:08:17.730Z,2.70
2023-04-25T21:10:47.621Z,2.20
2023-04-25T21:13:17.544Z,2.23
2023-04-25T21:15:47.706Z,3.20
2023-04-25T21:18:20.140Z,2.30
2023-04-25T21:20:50.053Z,2.77
2023-04-25T21:23:19.905Z,3.00
2023-04-25T21:25:51.744Z,2.70
2023-04-25T21:28:21.557Z,2.37
2023-04-25T21:30:51.568Z,2.40
2023-04-25T21:33:24.018Z,2.57
2023-04-25T21:35:53.901Z,2.60
2023-04-25T21:38:23.717Z,2.57
2023-04-25T21:40:53.595Z,2.50
2023-04-25T21:43:23.457Z,2.40
2023-04-25T21:48:29.751Z,2.03
2023-04-25T21:50:59.570Z,2.43
2023-04-25T21:53:29.344Z,2.37
2023-04-25T21:55:59.908Z,2.30
2023-04-25T21:58:29.711Z,2.30
2023-04-25T22:00:59.670Z,2.47
2023-04-25T22:03:38.048Z,2.27
2023-04-25T22:06:08.082Z,2.40
2023-04-25T22:08:37.920Z,2.80
2023-04-25T22:11:08.786Z,2.30
2023-04-25T22:13:38.871Z,2.33
2023-04-25T22:16:12.354Z,2.13
2023-04-25T22:18:46.666Z,2.07
2023-04-25T22:21:16.717Z,1.93
2023-04-25T22:23:46.533Z,2.00
2023-04-25T22:26:16.344Z,2.50
2023-04-25T22:28:46.512Z,1.97
2023-04-25T22:31:16.453Z,2.27
2023-04-25T22:33:48.965Z,2.30
2023-04-25T22:36:19.800Z,2.00
2023-04-25T22:38:49.935Z,2.20
2023-04-25T22:41:19.961Z,2.10
2023-04-25T22:43:50.022Z,1.80
2023-04-25T22:46:22.426Z,2.20
2023-04-25T22:48:54.982Z,2.30
2023-04-25T22:51:24.800Z,1.90
2023-04-25T22:53:54.623Z,2.23
2023-04-25T22:56:24.930Z,2.20
2023-04-25T22:58:54.957Z,2.00
2023-04-25T23:01:25.141Z,2.10
2023-04-25T23:03:59.558Z,1.97
2023-04-25T23:06:29.559Z,2.10
2023-04-25T23:09:00.673Z,1.93
2023-04-25T23:11:32.815Z,2.47
2023-04-25T23:14:04.022Z,1.83
2023-04-25T23:16:33.852Z,2.10
2023-04-25T23:19:06.385Z,1.90
2023-04-25T23:21:36.296Z,1.80
2023-04-25T23:24:06.204Z,1.73
2023-04-25T23:26:36.013Z,2.03
2023-04-25T23:29:05.796Z,1.87
2023-04-25T23:31:36.713Z,1.97
2023-04-25T23:34:09.184Z,1.90
2023-04-25T23:36:39.330Z,2.03
2023-04-25T23:39:13.167Z,2.40
2023-04-25T23:41:43.739Z,1.90
2023-04-25T23:44:13.502Z,2.13
2023-04-25T23:46:43.405Z,1.90
2023-04-25T23:49:15.900Z,2.00
2023-04-25T23:51:45.730Z,1.83
2023-04-25T23:54:16.129Z,1.87
2023-04-25T23:56:45.944Z,2.30
2023-04-25T23:59:16.468Z,1.80
